Time;durP1;ratioP1;P1;durP2;ratioP2;P2;SDS_P1;SDS_P2;PMS_P1;PMS_P2;Temp;Humidity;BMP_temperature;BMP_pressure;BME280_temperature;BME280_humidity;BME280_pressure;Samples;Min_cycle;Max_cycle;Signal;HPM_P1;HPM_P2
2022/02/22 00:02:06;;;;;;;0.00;0.00;;;;;;;6.14;79.22;101042.94;4926678;28;20039;-71
2022/02/22 00:04:34;;;;;;;0.00;0.00;;;;;;;6.25;78.62;101044.94;4972551;28;20043;-73
2022/02/22 00:07:00;;;;;;;0.00;0.00;;;;;;;6.28;79.22;101044.50;4970703;28;20027;-70
2022/02/22 00:09:26;;;;;;;0.00;0.00;;;;;;;6.35;78.85;101039.84;4970343;28;20031;-73
2022/02/22 00:11:51;;;;;;;0.00;0.00;;;;;;;6.38;78.03;101050.28;4957745;28;20031;-74
2022/02/22 00:14:17;;;;;;;0.00;0.00;;;;;;;6.40;78.29;101047.31;4964159;28;20027;-70
2022/02/22 00:16:43;;;;;;;0.00;0.00;;;;;;;6.39;78.31;101040.22;4960701;28;20046;-73
2022/02/22 00:19:08;;;;;;;0.22;0.22;;;;;;;6.40;78.34;101053.59;4973525;28;20020;-72
2022/02/22 00:21:34;;;;;;;0.00;0.00;;;;;;;6.42;78.96;101045.22;4970125;28;20038;-69
2022/02/22 00:23:59;;;;;;;0.00;0.00;;;;;;;6.52;78.43;101044.72;4975349;28;20026;-70
2022/02/22 00:26:24;;;;;;;0.00;0.00;;;;;;;6.54;79.46;101039.88;4955101;28;20466;-71
2022/02/22 00:28:50;;;;;;;0.00;0.00;;;;;;;6.62;78.97;101039.59;4966863;28;20034;-72
2022/02/22 00:31:15;;;;;;;0.00;0.00;;;;;;;6.68;79.66;101033.25;4966891;28;20031;-72
2022/02/22 00:33:41;;;;;;;0.00;0.00;;;;;;;6.74;79.17;101032.34;4967538;28;20023;-72
2022/02/22 00:36:07;;;;;;;0.00;0.00;;;;;;;6.81;78.72;101030.38;4951895;28;20046;-70
2022/02/22 00:38:32;;;;;;;0.00;0.00;;;;;;;6.81;78.18;101024.13;4969235;28;20042;-69
2022/02/22 00:40:58;;;;;;;0.00;0.00;;;;;;;6.79;79.17;101016.19;4967183;28;20158;-69
2022/02/22 00:43:23;;;;;;;0.00;0.00;;;;;;;6.81;78.81;101005.91;4971288;28;20090;-71
2022/02/22 00:45:49;;;;;;;0.00;0.00;;;;;;;6.80;78.29;101009.72;4964474;28;20030;-71
2022/02/22 00:48:14;;;;;;;0.00;0.00;;;;;;;6.81;78.71;101005.91;4952541;28;20423;-73
2022/02/22 00:50:40;;;;;;;0.00;0.00;;;;;;;6.82;77.98;101001.31;4968846;28;20098;-69
2022/02/22 00:53:05;;;;;;;0.00;0.00;;;;;;;6.79;78.43;101002.59;4967767;28;20027;-71
2022/02/22 00:55:32;;;;;;;0.00;0.00;;;;;;;6.80;78.53;101003.41;4966244;28;20515;-69
2022/02/22 00:57:57;;;;;;;0.00;0.00;;;;;;;6.80;78.35;100992.53;4974587;28;20038;-69
2022/02/22 01:00:23;;;;;;;0.00;0.00;;;;;;;6.78;77.83;100991.97;4971347;28;20030;-69
2022/02/22 01:02:48;;;;;;;0.00;0.00;;;;;;;6.79;78.13;100996.31;4953538;28;20030;-70
2022/02/22 01:05:14;;;;;;;0.00;0.00;;;;;;;6.82;77.39;100999.44;4977006;28;20026;-70
2022/02/22 01:07:40;;;;;;;0.00;0.00;;;;;;;6.85;78.39;100991.88;4970721;28;20133;-67
2022/02/22 01:10:06;;;;;;;0.00;0.00;;;;;;;6.95;77.72;100995.72;4971521;28;20480;-68
2022/02/22 01:12:32;;;;;;;0.00;0.00;;;;;;;7.04;78.01;100993.53;4967700;28;20074;-70
2022/02/22 01:14:57;;;;;;;0.00;0.00;;;;;;;7.09;78.00;100996.38;4972336;28;20034;-69
2022/02/22 01:17:23;;;;;;;0.00;0.00;;;;;;;7.15;78.33;101006.38;4969114;28;20042;-70
2022/02/22 01:19:49;;;;;;;0.00;0.00;;;;;;;7.19;77.40;101000.47;4949231;28;20027;-69
2022/02/22 01:22:14;;;;;;;0.00;0.00;;;;;;;7.22;77.68;100989.13;4972872;28;20504;-69
2022/02/22 01:24:39;;;;;;;0.00;0.00;;;;;;;7.25;77.55;100985.94;4967890;28;20023;-69
2022/02/22 01:27:05;;;;;;;0.00;0.00;;;;;;;7.32;77.55;100989.41;4971960;28;20061;-75
2022/02/22 01:29:32;;;;;;;0.00;0.00;;;;;;;7.36;77.44;100982.44;4977909;28;20472;-70
2022/02/22 01:31:57;;;;;;;0.00;0.00;;;;;;;7.43;77.16;100983.19;4952827;28;20030;-71
2022/02/22 01:34:23;;;;;;;0.00;0.00;;;;;;;7.49;77.97;100986.84;4971401;28;20034;-70
2022/02/22 01:36:49;;;;;;;0.00;0.00;;;;;;;7.54;77.55;100975.28;4969663;28;20046;-70
2022/02/22 01:39:14;;;;;;;0.00;0.00;;;;;;;7.61;77.43;100976.00;4934639;28;20019;-69
2022/02/22 01:41:47;;;;;;;0.00;0.00;;;;;;;7.63;77.07;100973.88;4968023;28;20039;-69
2022/02/22 01:44:23;;;;;;;0.00;0.00;;;;;;;7.69;77.23;100972.94;4966289;28;20412;-70
2022/02/22 01:46:57;;;;;;;0.00;0.00;;;;;;;7.77;77.02;100975.31;4964585;28;20089;-69
2022/02/22 01:49:32;;;;;;;0.00;0.00;;;;;;;7.84;76.99;100976.06;4968919;28;20030;-70
2022/02/22 01:51:58;;;;;;;0.00;0.00;;;;;;;7.85;76.67;100969.53;4967696;28;20267;-70
2022/02/22 01:54:28;;;;;;;0.00;0.00;;;;;;;7.87;77.07;100974.75;4965965;28;20393;-69
2022/02/22 01:56:54;;;;;;;0.00;0.00;;;;;;;7.84;77.30;100958.88;4969773;28;20034;-68
2022/02/22 01:59:20;;;;;;;0.00;0.00;;;;;;;7.81;77.33;100957.47;4947377;28;20035;-68
2022/02/22 02:01:46;;;;;;;0.00;0.00;;;;;;;7.78;77.00;100955.22;4965813;28;20033;-69
2022/02/22 02:04:11;;;;;;;0.00;0.00;;;;;;;7.73;76.96;100941.47;4965261;28;20019;-67
2022/02/22 02:06:40;;;;;;;0.00;0.00;;;;;;;7.73;77.44;100936.00;4958436;28;20190;-69
2022/02/22 02:09:07;;;;;;;0.00;0.00;;;;;;;7.76;77.30;100938.25;4967593;28;20420;-68
2022/02/22 02:11:45;;;;;;;0.00;0.00;;;;;;;7.80;77.17;100930.47;4965740;28;20038;-68
2022/02/22 02:14:11;;;;;;;0.00;0.00;;;;;;;7.84;77.11;100927.03;4968209;28;20027;-69
2022/02/22 02:16:37;;;;;;;0.00;0.00;;;;;;;7.85;77.04;100912.34;4960920;28;20041;-69
2022/02/22 02:19:03;;;;;;;0.00;0.00;;;;;;;7.90;76.68;100908.09;4955080;28;20023;-69
2022/02/22 02:21:30;;;;;;;0.00;0.00;;;;;;;7.88;77.06;100893.88;4968522;28;20026;-68
2022/02/22 02:24:26;;;;;;;0.00;0.00;;;;;;;7.90;76.59;100895.31;4959160;28;20030;-69
2022/02/22 02:26:54;;;;;;;0.00;0.00;;;;;;;7.92;76.83;100892.34;4966056;28;20030;-68
2022/02/22 02:29:22;;;;;;;0.00;0.00;;;;;;;7.93;76.48;100883.09;4969086;28;20391;-68
2022/02/22 02:31:50;;;;;;;0.00;0.00;;;;;;;7.96;76.39;100877.22;4970249;28;20369;-67
2022/02/22 02:34:19;;;;;;;0.00;0.00;;;;;;;7.89;76.24;100876.50;4963490;28;20506;-67
2022/02/22 02:36:45;;;;;;;0.00;0.00;;;;;;;7.74;76.86;100883.22;4965376;28;20078;-69
2022/02/22 02:39:11;;;;;;;0.70;0.70;;;;;;;7.64;77.23;100883.00;4968467;28;20542;-68
2022/02/22 02:41:38;;;;;;;0.00;0.00;;;;;;;7.53;77.47;100871.00;4965184;28;20030;-69
2022/02/22 02:44:12;;;;;;;0.00;0.00;;;;;;;7.49;77.76;100872.53;4966636;28;20035;-68
2022/02/22 02:46:39;;;;;;;0.00;0.00;;;;;;;7.50;78.85;100866.03;4966981;28;20117;-67
2022/02/22 02:49:06;;;;;;;0.00;0.00;;;;;;;7.55;78.88;100862.59;4959347;28;20117;-69
2022/02/22 02:51:32;;;;;;;0.00;0.00;;;;;;;7.62;78.80;100866.03;4951245;28;20030;-67
2022/02/22 02:53:58;;;;;;;0.00;0.00;;;;;;;7.67;78.74;100860.75;4959874;28;20032;-69
2022/02/22 02:56:24;;;;;;;0.00;0.00;;;;;;;7.67;78.53;100850.66;4958672;28;20026;-69
2022/02/22 02:58:58;;;;;;;0.00;0.00;;;;;;;7.74;78.69;100853.28;4964792;28;20073;-68
2022/02/22 03:01:25;;;;;;;0.00;0.00;;;;;;;7.80;78.30;100849.59;4968027;28;20023;-69
2022/02/22 03:03:51;;;;;;;0.00;0.00;;;;;;;7.80;78.81;100855.06;4965306;28;20169;-69
2022/02/22 03:06:17;;;;;;;0.00;0.00;;;;;;;7.74;79.05;100852.44;4971196;28;20026;-70
2022/02/22 03:08:42;;;;;;;0.00;0.00;;;;;;;7.68;78.73;100841.44;4952246;28;20066;-68
2022/02/22 03:11:08;;;;;;;0.20;0.20;;;;;;;7.66;79.12;100850.91;4967001;28;20372;-71
2022/02/22 03:13:34;;;;;;;0.00;0.00;;;;;;;7.61;79.94;100834.47;4955164;28;20483;-68
2022/02/22 03:15:59;;;;;;;0.00;0.00;;;;;;;7.55;80.07;100840.84;4956750;28;20038;-68
2022/02/22 03:18:25;;;;;;;0.00;0.00;;;;;;;7.54;81.02;100834.56;4970502;28;20050;-68
2022/02/22 03:20:50;;;;;;;0.00;0.00;;;;;;;7.54;81.00;100828.31;4971315;28;20655;-69
2022/02/22 03:23:19;;;;;;;0.00;0.00;;;;;;;7.53;81.24;100824.75;4951356;28;20022;-68
2022/02/22 03:25:45;;;;;;;0.00;0.00;;;;;;;7.60;81.53;100821.91;4967220;28;20551;-70
2022/02/22 03:28:10;;;;;;;0.00;0.00;;;;;;;7.61;82.06;100812.69;4969188;28;20070;-69
2022/02/22 03:30:36;;;;;;;0.00;0.00;;;;;;;7.65;82.91;100819.28;4971462;28;20027;-69
2022/02/22 03:33:01;;;;;;;0.00;0.00;;;;;;;7.70;83.34;100816.72;4957032;28;20138;-68
2022/02/22 03:35:27;;;;;;;0.00;0.00;;;;;;;7.73;83.14;100805.34;4959534;28;20030;-69
2022/02/22 03:37:53;;;;;;;0.00;0.00;;;;;;;7.81;83.93;100807.72;4951361;28;20064;-72
2022/02/22 03:40:19;;;;;;;0.00;0.00;;;;;;;7.86;84.37;100793.38;4950942;28;20027;-69
2022/02/22 03:42:45;;;;;;;0.00;0.00;;;;;;;7.91;84.15;100784.50;4952203;28;20027;-69
2022/02/22 03:45:12;;;;;;;0.00;0.00;;;;;;;7.98;84.97;100785.19;4951044;28;20027;-70
2022/02/22 03:47:39;;;;;;;0.00;0.00;;;;;;;8.02;85.26;100787.19;4949085;28;20497;-70
2022/02/22 03:50:06;;;;;;;0.00;0.00;;;;;;;8.06;85.46;100787.56;4946740;28;20066;-69
2022/02/22 03:52:32;;;;;;;0.00;0.00;;;;;;;8.09;85.88;100786.22;4949795;28;20118;-70
2022/02/22 03:54:57;;;;;;;0.00;0.00;;;;;;;8.10;85.66;100783.25;4943908;28;20162;-70
2022/02/22 03:57:23;;;;;;;0.00;0.00;;;;;;;8.09;85.64;100770.72;4940679;28;20065;-68
2022/02/22 03:59:48;;;;;;;0.00;0.00;;;;;;;8.11;86.57;100767.75;4943760;28;20023;-70
2022/02/22 04:02:14;;;;;;;0.00;0.00;;;;;;;8.13;86.79;100761.00;4947880;28;20039;-70
2022/02/22 04:04:39;;;;;;;0.00;0.00;;;;;;;8.16;86.58;100765.13;4946416;28;20484;-69
2022/02/22 04:07:05;;;;;;;0.00;0.00;;;;;;;8.16;87.01;100768.69;4947069;28;20031;-71
2022/02/22 04:09:30;;;;;;;0.00;0.00;;;;;;;8.15;87.32;100764.31;4962844;28;20469;-69
2022/02/22 04:11:56;;;;;;;0.00;0.00;;;;;;;8.19;87.91;100765.47;4942759;28;20039;-70
2022/02/22 04:14:21;;;;;;;0.00;0.00;;;;;;;8.20;87.85;100756.22;4948357;28;20155;-70
2022/02/22 04:16:47;;;;;;;0.00;0.00;;;;;;;8.20;88.08;100756.22;4952244;28;20034;-69
2022/02/22 04:19:13;;;;;;;0.00;0.00;;;;;;;8.21;88.69;100763.31;4954081;28;20482;-70
2022/02/22 04:21:38;;;;;;;0.00;0.00;;;;;;;8.22;88.88;100753.28;4948816;28;20034;-71
2022/02/22 04:24:04;;;;;;;0.00;0.00;;;;;;;8.25;89.25;100736.44;4947607;28;20107;-69
2022/02/22 04:26:30;;;;;;;0.00;0.00;;;;;;;8.29;89.47;100736.78;4950815;28;20035;-71
2022/02/22 04:28:57;;;;;;;0.20;0.20;;;;;;;8.31;89.48;100740.91;4952255;28;20043;-66
2022/02/22 04:31:23;;;;;;;0.00;0.00;;;;;;;8.31;89.47;100731.88;4954699;28;20031;-67
2022/02/22 04:33:48;;;;;;;0.00;0.00;;;;;;;8.34;89.98;100734.16;4955482;28;20050;-68
2022/02/22 04:36:14;;;;;;;0.00;0.00;;;;;;;8.40;90.09;100733.19;4965144;28;20046;-65
2022/02/22 04:38:39;;;;;;;0.00;0.00;;;;;;;8.46;89.93;100737.66;4965209;28;20041;-67
2022/02/22 04:41:05;;;;;;;0.00;0.00;;;;;;;8.53;89.74;100727.44;4963544;28;20031;-67
2022/02/22 04:43:30;;;;;;;0.00;0.00;;;;;;;8.53;89.71;100711.09;4956188;28;20019;-68
2022/02/22 04:45:56;;;;;;;0.00;0.00;;;;;;;8.54;89.56;100711.91;4958744;28;20049;-68
2022/02/22 04:48:21;;;;;;;0.00;0.00;;;;;;;8.58;89.80;100707.63;4955953;28;20532;-68
2022/02/22 04:50:47;;;;;;;0.00;0.00;;;;;;;8.58;89.89;100713.06;4957236;28;20046;-66
2022/02/22 04:53:12;;;;;;;0.00;0.00;;;;;;;8.59;89.69;100708.47;4951786;28;20110;-67
2022/02/22 04:55:38;;;;;;;0.00;0.00;;;;;;;8.62;90.21;100705.25;4953458;28;20035;-68
2022/02/22 04:58:03;;;;;;;0.00;0.00;;;;;;;8.67;90.28;100700.72;4942293;28;20126;-67
2022/02/22 05:00:29;;;;;;;0.00;0.00;;;;;;;8.74;90.48;100695.09;4948589;28;20063;-66
2022/02/22 05:02:55;;;;;;;0.00;0.00;;;;;;;8.76;90.64;100676.59;4951778;28;20416;-67
2022/02/22 05:05:20;;;;;;;0.00;0.00;;;;;;;8.87;90.25;100680.31;4947210;28;20031;-67
2022/02/22 05:07:46;;;;;;;1.95;0.98;;;;;;;8.89;90.76;100678.97;4952351;28;20035;-68
2022/02/22 05:10:11;;;;;;;0.00;0.00;;;;;;;8.93;91.20;100678.47;4950322;28;20031;-68
2022/02/22 05:12:37;;;;;;;0.00;0.00;;;;;;;8.95;90.47;100679.03;4949234;28;20027;-69
2022/02/22 05:15:03;;;;;;;0.00;0.00;;;;;;;9.04;90.69;100672.13;4916767;29;20046;-68
2022/02/22 05:17:29;;;;;;;0.00;0.00;;;;;;;9.14;90.76;100683.19;4947774;28;20031;-69
2022/02/22 05:19:54;;;;;;;0.00;0.00;;;;;;;9.19;90.93;100677.78;4952168;28;20429;-69
2022/02/22 05:22:20;;;;;;;0.00;0.00;;;;;;;9.26;90.84;100674.88;4945894;28;20031;-69
2022/02/22 05:24:45;;;;;;;0.00;0.00;;;;;;;9.30;90.92;100676.03;4947859;28;20036;-69
2022/02/22 05:27:11;;;;;;;0.00;0.00;;;;;;;9.35;90.54;100672.56;4948652;28;20035;-68
2022/02/22 05:29:36;;;;;;;0.00;0.00;;;;;;;9.39;90.74;100682.72;4948659;28;20036;-69
2022/02/22 05:32:03;;;;;;;0.00;0.00;;;;;;;9.44;89.84;100671.03;4946281;28;20041;-69
2022/02/22 05:34:29;;;;;;;3.63;1.75;;;;;;;9.47;90.10;100681.44;4952087;28;20023;-70
2022/02/22 05:36:57;;;;;;;0.00;0.00;;;;;;;9.51;90.20;100671.69;4964731;28;20058;-70
2022/02/22 05:39:22;;;;;;;0.00;0.00;;;;;;;9.52;90.03;100667.88;4949064;28;20557;-70
2022/02/22 05:41:48;;;;;;;0.00;0.00;;;;;;;9.55;89.58;100670.09;4953760;28;20035;-69
2022/02/22 05:44:13;;;;;;;0.00;0.00;;;;;;;9.58;89.56;100672.31;4952830;28;20042;-71
2022/02/22 05:46:39;;;;;;;0.00;0.00;;;;;;;9.60;89.74;100675.59;4942352;28;20369;-68
2022/02/22 05:49:04;;;;;;;0.00;0.00;;;;;;;9.61;89.81;100655.44;4966537;28;20038;-68
2022/02/22 05:51:30;;;;;;;0.00;0.00;;;;;;;9.61;89.45;100652.69;4946428;28;20143;-69
2022/02/22 05:53:55;;;;;;;0.00;0.00;;;;;;;9.59;89.59;100656.75;4957640;28;20036;-70
2022/02/22 05:56:21;;;;;;;0.00;0.00;;;;;;;9.56;90.03;100652.66;4944965;28;20035;-70
2022/02/22 05:58:46;;;;;;;0.00;0.00;;;;;;;9.59;89.70;100652.13;4956502;28;20438;-69
2022/02/22 06:01:12;;;;;;;0.00;0.00;;;;;;;9.63;89.51;100646.16;4943016;28;20441;-68
2022/02/22 06:03:37;;;;;;;0.00;0.00;;;;;;;9.68;89.19;100654.41;4950201;28;20027;-69
2022/02/22 06:06:02;;;;;;;0.00;0.00;;;;;;;9.64;89.13;100650.53;4945019;28;20086;-68
2022/02/22 06:08:29;;;;;;;0.00;0.00;;;;;;;9.60;89.28;100648.31;4950713;28;20030;-68
2022/02/22 06:10:55;;;;;;;0.00;0.00;;;;;;;9.63;89.21;100646.16;4953205;28;20039;-66
2022/02/22 06:13:21;;;;;;;0.00;0.00;;;;;;;9.61;88.77;100639.03;4957500;28;20113;-68
2022/02/22 06:15:47;;;;;;;0.00;0.00;;;;;;;9.59;89.04;100640.38;4950896;28;20058;-67
2022/02/22 06:18:12;;;;;;;5.50;1.55;;;;;;;9.53;88.93;100641.41;4966359;28;20391;-67
2022/02/22 06:20:39;;;;;;;0.00;0.00;;;;;;;9.52;89.44;100635.13;4953697;28;20041;-67
2022/02/22 06:23:05;;;;;;;0.00;0.00;;;;;;;9.50;89.34;100637.25;4950087;28;20039;-69
2022/02/22 06:25:31;;;;;;;0.00;0.00;;;;;;;9.59;89.59;100641.22;4963950;28;20338;-69
2022/02/22 06:27:57;;;;;;;0.15;0.15;;;;;;;9.63;89.61;100635.25;4963195;28;20464;-68
2022/02/22 06:30:24;;;;;;;0.00;0.00;;;;;;;9.66;88.97;100623.81;4952349;28;20073;-66
2022/02/22 06:32:51;;;;;;;0.00;0.00;;;;;;;9.68;88.70;100597.06;4941098;28;20028;-67
2022/02/22 06:35:17;;;;;;;0.00;0.00;;;;;;;9.74;88.67;100596.06;4952398;28;20085;-67
2022/02/22 06:37:42;;;;;;;0.00;0.00;;;;;;;9.74;88.61;100604.25;4960035;28;20042;-68
2022/02/22 06:40:09;;;;;;;0.00;0.00;;;;;;;9.83;88.54;100590.94;4975691;28;20041;-68
2022/02/22 06:42:36;;;;;;;0.00;0.00;;;;;;;9.88;88.14;100586.34;4953224;28;20531;-68
2022/02/22 06:45:06;;;;;;;0.28;0.25;;;;;;;9.96;87.82;100591.38;4965302;28;20058;-68
2022/02/22 06:47:31;;;;;;;0.00;0.00;;;;;;;10.01;87.16;100600.69;4972550;28;20027;-68
2022/02/22 06:49:57;;;;;;;0.00;0.00;;;;;;;10.04;86.43;100605.66;4968724;28;20039;-69
2022/02/22 06:52:23;;;;;;;0.00;0.00;;;;;;;10.07;86.61;100599.66;4968805;28;20388;-69
2022/02/22 06:54:49;;;;;;;0.00;0.00;;;;;;;10.10;86.25;100593.69;4966269;28;20181;-67
2022/02/22 06:57:15;;;;;;;0.00;0.00;;;;;;;10.15;85.72;100582.81;4966812;28;20126;-71
2022/02/22 06:59:40;;;;;;;0.00;0.00;;;;;;;10.15;85.29;100582.81;4956694;28;20041;-66
2022/02/22 07:02:06;;;;;;;0.00;0.00;;;;;;;10.18;84.84;100595.09;4969490;28;20449;-68
2022/02/22 07:04:31;;;;;;;0.00;0.00;;;;;;;10.23;84.56;100576.84;4965804;28;20117;-69
2022/02/22 07:06:57;;;;;;;0.38;0.38;;;;;;;10.25;84.75;100561.03;4964215;28;20121;-71
2022/02/22 07:09:22;;;;;;;0.00;0.00;;;;;;;10.23;84.27;100560.44;4971347;28;20034;-71
2022/02/22 07:11:48;;;;;;;1.27;1.17;;;;;;;10.20;83.76;100541.84;4955779;28;20019;-70
2022/02/22 07:14:13;;;;;;;0.00;0.00;;;;;;;10.17;83.98;100539.63;4964586;28;20042;-68
2022/02/22 07:16:39;;;;;;;0.00;0.00;;;;;;;10.14;83.26;100532.78;4942941;28;20031;-71
2022/02/22 07:19:04;;;;;;;0.00;0.00;;;;;;;10.17;83.21;100520.50;4947185;28;20031;-70
2022/02/22 07:21:30;;;;;;;0.00;0.00;;;;;;;10.15;82.53;100528.16;4965130;28;20023;-70
2022/02/22 07:23:55;;;;;;;1.55;1.45;;;;;;;10.13;82.62;100520.22;4961268;28;20038;-69
2022/02/22 07:26:26;;;;;;;4.30;0.75;;;;;;;10.14;82.49;100523.75;4967951;28;20041;-69
2022/02/22 07:28:51;;;;;;;0.17;0.17;;;;;;;10.13;82.17;100516.63;4970189;28;20054;-68
2022/02/22 07:31:41;;;;;;;1.10;1.10;;;;;;;10.17;81.35;100508.75;4964378;28;20098;-71
2022/02/22 07:34:06;;;;;;;0.00;0.00;;;;;;;10.19;81.13;100507.44;4956235;28;20051;-68
2022/02/22 07:36:31;;;;;;;0.00;0.00;;;;;;;10.19;80.39;100514.78;4969096;28;20102;-69
2022/02/22 07:38:57;;;;;;;0.00;0.00;;;;;;;10.24;79.63;100532.03;4950188;28;20523;-71
2022/02/22 07:41:22;;;;;;;0.10;0.10;;;;;;;10.28;79.05;100522.25;4928410;28;20500;-70
2022/02/22 07:43:50;;;;;;;0.13;0.08;;;;;;;10.35;78.27;100532.97;4949200;28;20373;-69
2022/02/22 07:46:17;;;;;;;0.20;0.20;;;;;;;10.43;77.47;100528.94;4974775;28;20027;-69
2022/02/22 07:48:47;;;;;;;0.13;0.13;;;;;;;10.48;77.29;100532.53;4970068;28;20031;-70
2022/02/22 07:51:16;;;;;;;0.38;0.38;;;;;;;10.45;75.86;100504.88;4948986;28;20198;-67
2022/02/22 07:53:48;;;;;;;0.00;0.00;;;;;;;10.51;76.19;100498.34;4974732;28;20042;-71
2022/02/22 07:56:15;;;;;;;0.85;0.85;;;;;;;10.55;75.46;100504.94;4974666;28;20050;-69
2022/02/22 07:58:41;;;;;;;1.67;0.15;;;;;;;10.63;75.85;100503.63;4954212;28;20103;-68
2022/02/22 08:01:07;;;;;;;0.00;0.00;;;;;;;10.67;75.39;100501.19;4968903;28;20333;-69
2022/02/22 08:03:34;;;;;;;0.57;0.57;;;;;;;10.61;74.87;100512.09;4969491;28;20030;-68
2022/02/22 08:05:59;;;;;;;0.00;0.00;;;;;;;10.62;74.20;100491.88;4960363;28;20046;-70
2022/02/22 08:08:26;;;;;;;0.13;0.13;;;;;;;10.62;74.36;100491.88;4986577;28;20015;-70
2022/02/22 08:10:52;;;;;;;1.75;0.10;;;;;;;10.62;73.66;100505.53;4957779;28;20023;-68
2022/02/22 08:13:18;;;;;;;11.90;2.35;;;;;;;10.64;73.57;100500.66;4976382;28;20037;-72
2022/02/22 08:15:43;;;;;;;0.00;0.00;;;;;;;10.64;73.95;100481.50;4976843;28;20526;-71
2022/02/22 08:18:09;;;;;;;0.00;0.00;;;;;;;10.70;73.27;100467.84;4975438;28;20038;-71
2022/02/22 08:20:34;;;;;;;9.57;2.08;;;;;;;10.68;73.00;100459.09;4971260;28;20176;-72
2022/02/22 08:23:00;;;;;;;0.00;0.00;;;;;;;10.77;73.02;100468.44;4956395;28;20476;-72
2022/02/22 08:25:26;;;;;;;1.50;1.02;;;;;;;10.77;71.68;100452.03;4973351;28;20038;-72
2022/02/22 08:27:52;;;;;;;1.15;1.15;;;;;;;10.78;71.24;100459.16;4972326;28;20090;-71
2022/02/22 08:30:17;;;;;;;0.00;0.00;;;;;;;10.86;71.15;100474.22;4977288;28;20039;-71
2022/02/22 08:32:43;;;;;;;0.00;0.00;;;;;;;10.90;71.10;100470.69;4970788;28;20042;-71
2022/02/22 08:35:09;;;;;;;0.00;0.00;;;;;;;10.96;70.89;100490.69;4951973;28;20035;-72
2022/02/22 08:37:34;;;;;;;0.00;0.00;;;;;;;11.05;70.54;100512.88;4960732;28;20106;-71
2022/02/22 08:40:00;;;;;;;4.00;0.57;;;;;;;11.05;69.99;100530.09;4973680;28;20038;-72
2022/02/22 08:42:30;;;;;;;0.45;0.45;;;;;;;11.07;70.05;100510.69;4929169;28;20041;-72
2022/02/22 08:44:57;;;;;;;0.00;0.00;;;;;;;11.07;70.27;100507.94;4971475;28;20314;-70
2022/02/22 08:47:22;;;;;;;0.20;0.20;;;;;;;11.02;70.21;100489.59;4968951;28;20734;-72
2022/02/22 08:49:48;;;;;;;2.20;0.63;;;;;;;11.00;70.42;100484.41;4951653;28;20062;-71
2022/02/22 08:52:14;;;;;;;0.00;0.00;;;;;;;11.08;70.54;100474.88;4971642;28;20342;-70
2022/02/22 08:54:40;;;;;;;0.00;0.00;;;;;;;11.22;70.73;100480.66;4970984;28;20030;-70
2022/02/22 08:57:06;;;;;;;0.30;0.30;;;;;;;11.29;70.32;100475.75;4956304;28;20027;-71
2022/02/22 08:59:31;;;;;;;0.73;0.73;;;;;;;11.34;69.90;100486.69;4973596;28;20019;-71
2022/02/22 09:01:57;;;;;;;0.25;0.25;;;;;;;11.42;70.17;100490.00;4975993;28;20081;-71
2022/02/22 09:04:23;;;;;;;0.00;0.00;;;;;;;11.33;70.51;100498.75;4958928;28;20385;-71
2022/02/22 09:06:48;;;;;;;9.57;0.90;;;;;;;11.37;70.21;100503.69;4941580;28;20031;-70
2022/02/22 09:09:13;;;;;;;10.95;0.20;;;;;;;11.39;71.17;100487.81;4976080;28;20052;-73
2022/02/22 09:11:39;;;;;;;0.00;0.00;;;;;;;11.57;70.83;100487.31;4963108;28;20079;-72
2022/02/22 09:14:05;;;;;;;0.00;0.00;;;;;;;11.62;70.47;100514.72;4963615;28;20061;-73
2022/02/22 09:16:30;;;;;;;0.00;0.00;;;;;;;11.58;70.43;100513.59;4959088;28;20019;-71
2022/02/22 09:18:56;;;;;;;2.78;2.33;;;;;;;11.51;70.98;100510.31;4995007;28;20042;-73
2022/02/22 09:21:22;;;;;;;6.72;1.20;;;;;;;11.48;71.65;100535.50;4986902;28;20019;-71
2022/02/22 09:23:47;;;;;;;0.60;0.43;;;;;;;11.44;71.67;100548.06;4981791;28;20036;-71
2022/02/22 09:26:13;;;;;;;0.35;0.35;;;;;;;11.31;71.72;100542.00;4991542;28;20026;-71
2022/02/22 09:28:38;;;;;;;0.00;0.00;;;;;;;11.30;72.49;100532.16;4958142;28;20481;-72
2022/02/22 09:31:04;;;;;;;0.00;0.00;;;;;;;11.41;72.27;100526.72;4965477;28;20035;-72
2022/02/22 09:33:29;;;;;;;0.00;0.00;;;;;;;11.44;72.31;100528.91;4961815;28;20019;-71
2022/02/22 09:35:55;;;;;;;0.00;0.00;;;;;;;11.47;72.76;100542.88;4982086;28;20025;-72
2022/02/22 09:38:20;;;;;;;2.17;1.65;;;;;;;11.42;72.42;100578.47;4963439;28;20026;-73
2022/02/22 09:40:46;;;;;;;0.00;0.00;;;;;;;11.42;72.97;100555.72;4975933;28;20499;-72
2022/02/22 09:43:12;;;;;;;0.00;0.00;;;;;;;11.47;72.65;100531.91;4976575;28;20425;-73
2022/02/22 09:45:38;;;;;;;0.00;0.00;;;;;;;11.55;72.52;100516.06;4943623;28;20049;-71
2022/02/22 09:48:04;;;;;;;0.10;0.10;;;;;;;11.62;72.67;100506.50;4950192;28;20046;-71
2022/02/22 09:50:32;;;;;;;3.05;2.85;;;;;;;11.81;72.37;100503.22;4965441;28;20122;-73
2022/02/22 09:52:57;;;;;;;0.08;0.08;;;;;;;11.93;71.26;100495.59;4974013;28;20058;-71
2022/02/22 09:55:23;;;;;;;0.00;0.00;;;;;;;12.09;70.09;100495.59;4968342;28;20141;-72
2022/02/22 09:57:50;;;;;;;0.65;0.65;;;;;;;12.19;69.02;100498.34;4976616;28;20030;-72
2022/02/22 10:00:23;;;;;;;0.20;0.20;;;;;;;12.23;68.33;100499.44;4971525;28;20035;-72
2022/02/22 10:02:50;;;;;;;1.10;1.08;;;;;;;12.35;68.04;100489.00;4965931;28;20023;-72
2022/02/22 10:05:18;;;;;;;2.45;0.40;;;;;;;12.43;67.61;100470.34;4973801;28;20026;-73
2022/02/22 10:08:03;;;;;;;0.10;0.10;;;;;;;12.58;67.22;100473.06;4958628;28;20026;-73
2022/02/22 10:10:40;;;;;;;1.00;0.55;;;;;;;13.05;68.43;100465.47;4957817;28;20034;-72
2022/02/22 10:13:07;;;;;;;0.17;0.17;;;;;;;14.48;66.83;100471.03;4972135;28;20039;-75
2022/02/22 10:15:42;;;;;;;0.00;0.00;;;;;;;16.05;62.71;100487.72;4978811;28;20039;-69
2022/02/22 10:18:09;;;;;;;0.00;0.00;;;;;;;17.26;58.01;100475.78;4968068;28;20030;-72
2022/02/22 10:20:36;;;;;;;0.00;0.00;;;;;;;17.24;53.62;100477.22;4968451;28;20030;-72
2022/02/22 10:23:02;;;;;;;0.00;0.00;;;;;;;16.85;54.21;100454.53;4951525;28;20031;-72
2022/02/22 10:25:28;;;;;;;1.65;0.10;;;;;;;16.33;53.66;100459.41;4954742;28;20030;-71
2022/02/22 10:27:59;;;;;;;0.00;0.00;;;;;;;15.97;54.65;100452.53;4975986;28;20037;-72
2022/02/22 10:30:39;;;;;;;0.38;0.38;;;;;;;15.69;55.49;100454.38;4957446;28;20035;-71
2022/02/22 10:33:13;;;;;;;0.73;0.73;;;;;;;15.44;56.24;100450.88;4969747;28;20027;-71
2022/02/22 10:35:39;;;;;;;2.10;0.80;;;;;;;15.34;56.69;100451.03;4972803;28;20034;-71
2022/02/22 10:38:20;;;;;;;0.00;0.00;;;;;;;15.01;56.76;100456.44;4969337;28;20047;-71
2022/02/22 10:41:06;;;;;;;0.00;0.00;;;;;;;14.62;58.32;100462.94;4951678;28;20436;-69
2022/02/22 10:43:38;;;;;;;0.00;0.00;;;;;;;14.56;58.30;100470.41;4960862;28;20055;-71
2022/02/22 10:46:07;;;;;;;0.00;0.00;;;;;;;14.53;58.56;100464.66;4972016;28;20043;-72
2022/02/22 10:48:34;;;;;;;0.00;0.00;;;;;;;14.58;58.80;100464.59;4966816;28;20061;-72
2022/02/22 10:51:03;;;;;;;0.00;0.00;;;;;;;14.60;58.58;100449.47;4972765;28;20038;-71
2022/02/22 10:53:40;;;;;;;0.00;0.00;;;;;;;14.52;58.28;100457.53;4974776;28;20030;-72
2022/02/22 10:56:09;;;;;;;0.00;0.00;;;;;;;14.60;58.87;100456.88;4968807;28;20051;-72
2022/02/22 10:58:35;;;;;;;0.00;0.00;;;;;;;14.60;58.20;100454.97;4969484;28;20139;-72
2022/02/22 11:01:02;;;;;;;0.00;0.00;;;;;;;14.45;58.22;100469.69;4968857;28;20097;-72
2022/02/22 11:03:29;;;;;;;0.00;0.00;;;;;;;14.23;58.93;100466.63;4970651;28;20062;-71
2022/02/22 11:05:55;;;;;;;0.10;0.10;;;;;;;14.07;59.20;100455.75;4973640;28;20074;-71
2022/02/22 11:08:26;;;;;;;0.00;0.00;;;;;;;13.86;59.62;100484.53;4977761;28;20042;-72
2022/02/22 11:11:03;;;;;;;0.30;0.30;;;;;;;13.62;60.26;100463.25;4975703;28;20038;-72
2022/02/22 11:13:30;;;;;;;0.00;0.00;;;;;;;13.54;61.22;100455.63;4966872;28;20038;-72
2022/02/22 11:16:09;;;;;;;0.00;0.00;;;;;;;13.58;61.44;100465.75;4973440;28;20325;-73
2022/02/22 11:18:47;;;;;;;1.90;0.90;;;;;;;13.69;61.75;100468.44;4968207;28;20054;-73
2022/02/22 11:21:13;;;;;;;2.65;1.58;;;;;;;13.63;61.99;100456.66;4979072;28;20023;-70
2022/02/22 11:23:38;;;;;;;0.10;0.10;;;;;;;13.31;63.30;100451.63;4953237;28;20397;-71
2022/02/22 11:26:05;;;;;;;0.47;0.47;;;;;;;13.08;65.60;100454.75;4962338;28;20027;-72
2022/02/22 11:28:41;;;;;;;0.00;0.00;;;;;;;12.88;66.29;100463.09;4967274;28;20420;-70